Time;durP1;ratioP1;P1;durP2;ratioP2;P2;SDS_P1;SDS_P2;PMS_P1;PMS_P2;Temp;Humidity;BMP_temperature;BMP_pressure;BME280_temperature;BME280_humidity;BME280_pressure;Samples;Min_cycle;Max_cycle;Signal;HPM_P1;HPM_P2
2021/12/28 00:01:10;;;;;;;3.03;1.23;;;8.00;99.90;;;;;;5031902;28;20173;-76
2021/12/28 00:03:37;;;;;;;2.90;0.87;;;8.00;99.90;;;;;;5032018;28;20510;-73
2021/12/28 00:06:05;;;;;;;3.27;1.60;;;8.00;99.90;;;;;;5031665;28;20473;-75
2021/12/28 00:08:31;;;;;;;7.70;1.77;;;8.00;99.90;;;;;;5031581;28;20435;-75
2021/12/28 00:10:57;;;;;;;3.00;1.30;;;7.90;99.90;;;;;;5031529;28;20448;-76
2021/12/28 00:13:24;;;;;;;4.47;1.07;;;8.00;99.90;;;;;;5031469;28;20484;-75
2021/12/28 00:16:02;;;;;;;6.00;1.70;;;8.00;99.90;;;;;;5031024;28;20415;-76
2021/12/28 00:18:28;;;;;;;1.53;1.00;;;8.00;99.90;;;;;;5030884;28;20540;-74
2021/12/28 00:20:57;;;;;;;3.47;1.10;;;7.90;99.90;;;;;;5030849;28;20782;-72
2021/12/28 00:23:28;;;;;;;9.70;1.40;;;8.00;99.90;;;;;;5030717;28;20554;-74
2021/12/28 00:25:55;;;;;;;7.67;1.67;;;8.00;99.90;;;;;;5030799;28;20893;-74
2021/12/28 00:28:21;;;;;;;4.37;1.20;;;8.00;99.90;;;;;;5030686;28;20443;-75
2021/12/28 00:30:48;;;;;;;5.70;1.63;;;8.00;99.90;;;;;;5029315;28;20419;-76
2021/12/28 00:33:14;;;;;;;11.37;2.30;;;8.00;99.90;;;;;;5030641;28;20510;-75
2021/12/28 00:35:41;;;;;;;8.87;1.63;;;8.00;99.90;;;;;;5029411;28;20430;-74
2021/12/28 00:38:09;;;;;;;10.57;1.30;;;8.10;99.90;;;;;;5029521;28;20443;-75
2021/12/28 00:40:36;;;;;;;6.37;1.60;;;8.10;99.90;;;;;;5030424;28;20473;-75
2021/12/28 00:43:03;;;;;;;5.20;1.90;;;8.10;99.90;;;;;;5030333;28;20980;-75
2021/12/28 00:45:29;;;;;;;7.13;1.30;;;8.10;99.90;;;;;;5030395;28;20494;-76
2021/12/28 00:47:55;;;;;;;10.10;2.00;;;8.10;99.90;;;;;;5030317;28;20467;-75
2021/12/28 00:50:24;;;;;;;12.50;2.20;;;8.10;99.90;;;;;;5030189;28;20916;-75
2021/12/28 00:52:50;;;;;;;6.60;1.57;;;8.10;99.90;;;;;;5029180;28;20181;-75
2021/12/28 00:55:18;;;;;;;5.60;1.50;;;8.10;99.90;;;;;;5028965;28;20458;-74
2021/12/28 00:57:44;;;;;;;8.80;2.00;;;8.10;99.90;;;;;;5029756;28;20474;-75
2021/12/28 01:00:14;;;;;;;5.37;1.60;;;8.10;99.90;;;;;;5029681;28;20518;-75
2021/12/28 01:02:39;;;;;;;10.57;2.00;;;8.10;99.90;;;;;;5028067;28;20466;-75
2021/12/28 01:05:06;;;;;;;8.87;2.13;;;8.10;99.90;;;;;;5029600;28;20426;-74
2021/12/28 01:07:32;;;;;;;7.03;1.77;;;8.20;99.90;;;;;;5029623;28;20677;-75
2021/12/28 01:09:58;;;;;;;5.90;2.17;;;8.20;99.90;;;;;;5027985;28;20435;-74
2021/12/28 01:12:23;;;;;;;12.80;2.10;;;8.20;99.90;;;;;;5029399;28;20189;-75
2021/12/28 01:14:49;;;;;;;10.43;2.13;;;8.20;99.90;;;;;;5028131;28;20193;-74
2021/12/28 01:17:15;;;;;;;9.17;2.37;;;8.20;99.90;;;;;;5028081;28;20185;-75
2021/12/28 01:19:42;;;;;;;14.80;3.00;;;8.20;99.90;;;;;;5029480;28;20192;-74
2021/12/28 01:22:07;;;;;;;12.57;2.37;;;8.10;99.90;;;;;;5029402;28;20307;-75
2021/12/28 01:24:33;;;;;;;11.60;1.70;;;8.20;99.90;;;;;;5028166;28;20477;-75
2021/12/28 01:26:59;;;;;;;8.33;1.90;;;8.20;99.90;;;;;;5029357;28;20421;-73
2021/12/28 01:29:25;;;;;;;11.67;1.63;;;8.20;99.90;;;;;;5029126;28;20448;-73
2021/12/28 01:31:51;;;;;;;13.70;2.93;;;8.10;99.90;;;;;;5027823;28;20196;-73
2021/12/28 01:34:17;;;;;;;16.53;3.00;;;8.10;99.90;;;;;;5029064;28;20569;-73
2021/12/28 01:36:43;;;;;;;19.53;2.23;;;8.00;99.90;;;;;;5029344;28;20423;-74
2021/12/28 01:39:09;;;;;;;11.93;2.03;;;8.00;99.90;;;;;;5029409;28;20434;-74
2021/12/28 01:41:36;;;;;;;11.40;2.13;;;8.00;99.90;;;;;;5029802;28;20472;-74
2021/12/28 01:44:06;;;;;;;3.73;1.67;;;7.90;99.90;;;;;;5029600;28;20432;-74
2021/12/28 01:46:33;;;;;;;8.53;2.00;;;7.80;99.90;;;;;;5029439;28;20411;-75
2021/12/28 01:48:59;;;;;;;12.13;2.37;;;7.70;99.90;;;;;;5027832;28;20457;-73
2021/12/28 01:51:26;;;;;;;6.07;1.80;;;7.70;99.90;;;;;;5029274;28;20436;-75
2021/12/28 01:53:56;;;;;;;14.97;2.67;;;7.70;99.90;;;;;;5029398;28;20204;-75
2021/12/28 01:56:45;;;;;;;11.07;2.13;;;7.80;99.90;;;;;;5029325;28;20920;-74
2021/12/28 01:59:13;;;;;;;10.20;2.40;;;7.70;99.90;;;;;;5026338;28;20448;-74
2021/12/28 02:01:39;;;;;;;12.57;2.27;;;7.70;99.90;;;;;;5028257;28;20469;-74
2021/12/28 02:04:24;;;;;;;8.30;2.20;;;7.60;99.90;;;;;;5028278;28;20851;-74
2021/12/28 02:06:52;;;;;;;8.73;2.47;;;7.60;99.90;;;;;;5026884;28;20467;-74
2021/12/28 02:09:18;;;;;;;6.03;1.67;;;7.60;99.90;;;;;;5028092;28;20544;-75
2021/12/28 02:11:45;;;;;;;13.13;3.17;;;7.60;99.90;;;;;;5031842;28;20967;-75
2021/12/28 02:14:11;;;;;;;16.13;2.67;;;7.60;99.90;;;;;;5033882;28;20426;-75
2021/12/28 02:16:39;;;;;;;7.80;1.90;;;7.50;99.90;;;;;;5028583;28;20427;-73
2021/12/28 02:19:07;;;;;;;6.60;1.50;;;7.50;99.90;;;;;;5028131;28;20922;-74
2021/12/28 02:21:33;;;;;;;9.60;2.13;;;7.60;99.90;;;;;;5010281;28;20959;-74
2021/12/28 02:24:01;;;;;;;9.53;2.00;;;7.60;99.90;;;;;;5026726;28;20461;-74
2021/12/28 02:26:28;;;;;;;8.23;2.10;;;7.70;99.90;;;;;;5027979;28;20419;-73
2021/12/28 02:28:53;;;;;;;5.43;1.97;;;7.70;99.90;;;;;;5027917;28;20435;-73
2021/12/28 02:31:19;;;;;;;9.93;1.63;;;7.70;99.90;;;;;;5028069;28;20430;-75
2021/12/28 02:33:48;;;;;;;7.97;1.90;;;7.60;99.90;;;;;;5010166;28;20543;-73
2021/12/28 02:36:14;;;;;;;5.13;2.27;;;7.60;99.90;;;;;;5027975;28;20423;-74
2021/12/28 02:38:40;;;;;;;10.53;2.10;;;7.50;99.90;;;;;;5027894;28;20435;-74
2021/12/28 02:41:07;;;;;;;9.20;2.37;;;7.50;99.90;;;;;;5027838;28;20429;-73
2021/12/28 02:43:33;;;;;;;7.50;2.47;;;7.50;99.90;;;;;;5027933;28;20188;-74
2021/12/28 02:46:05;;;;;;;5.40;1.43;;;7.50;99.90;;;;;;5027605;28;20407;-74
2021/12/28 02:48:32;;;;;;;7.63;2.00;;;7.50;99.90;;;;;;5027850;28;20477;-74
2021/12/28 02:51:02;;;;;;;5.10;1.60;;;7.50;99.90;;;;;;5027685;28;20443;-75
2021/12/28 02:53:28;;;;;;;4.60;1.73;;;7.50;99.90;;;;;;5027820;28;20416;-74
2021/12/28 02:55:55;;;;;;;9.67;2.43;;;7.60;99.90;;;;;;5026310;28;20837;-74
2021/12/28 02:58:29;;;;;;;10.23;1.77;;;7.50;99.90;;;;;;5027775;28;20442;-73
2021/12/28 03:01:04;;;;;;;9.37;1.57;;;7.50;99.90;;;;;;5027908;28;20406;-72
2021/12/28 03:03:31;;;;;;;6.97;2.10;;;7.60;99.90;;;;;;5031487;28;20831;-73
2021/12/28 03:05:58;;;;;;;7.40;2.07;;;7.60;99.90;;;;;;5031244;28;20422;-73
2021/12/28 03:08:26;;;;;;;3.20;1.37;;;7.60;99.90;;;;;;5031148;28;20581;-73
2021/12/28 03:10:53;;;;;;;3.40;1.40;;;7.60;99.90;;;;;;5031170;28;20442;-72
2021/12/28 03:13:33;;;;;;;5.20;1.33;;;7.60;99.90;;;;;;5031133;28;20428;-74
2021/12/28 03:15:59;;;;;;;5.50;2.00;;;7.60;99.90;;;;;;5031163;28;20458;-74
2021/12/28 03:18:24;;;;;;;5.33;1.90;;;7.50;99.90;;;;;;5029416;28;21011;-74
2021/12/28 03:20:50;;;;;;;4.37;1.67;;;7.60;99.90;;;;;;5031058;28;20450;-74
2021/12/28 03:23:18;;;;;;;8.20;1.73;;;7.60;99.90;;;;;;5030901;28;20711;-74
2021/12/28 03:25:45;;;;;;;1.53;1.20;;;7.60;99.90;;;;;;5031081;28;20180;-74
2021/12/28 03:28:23;;;;;;;4.57;1.63;;;7.60;99.90;;;;;;5030744;28;20493;-73
2021/12/28 03:30:49;;;;;;;4.83;1.67;;;7.70;99.90;;;;;;5029400;28;20437;-73
2021/12/28 03:33:15;;;;;;;4.37;1.10;;;7.60;99.90;;;;;;5029495;28;20443;-73
2021/12/28 03:35:42;;;;;;;6.70;1.50;;;7.70;99.90;;;;;;5030832;28;20473;-73
2021/12/28 03:38:08;;;;;;;4.17;1.50;;;7.70;99.90;;;;;;5030712;28;20520;-72
2021/12/28 03:40:33;;;;;;;3.10;1.07;;;7.80;99.90;;;;;;5030640;28;20530;-73
2021/12/28 03:42:59;;;;;;;1.20;0.80;;;7.90;99.90;;;;;;5030521;28;20574;-74
2021/12/28 03:45:25;;;;;;;3.77;1.30;;;7.90;99.90;;;;;;5030578;28;20196;-75
2021/12/28 03:47:51;;;;;;;7.53;1.17;;;8.00;99.90;;;;;;5030468;28;20435;-75
2021/12/28 03:50:19;;;;;;;5.97;1.67;;;8.00;99.90;;;;;;5030368;28;20184;-75
2021/12/28 03:52:46;;;;;;;2.53;1.73;;;8.00;99.90;;;;;;5030399;28;20267;-75
2021/12/28 03:55:12;;;;;;;4.37;1.43;;;8.10;99.90;;;;;;5030320;28;20426;-75
2021/12/28 03:57:39;;;;;;;6.73;1.43;;;8.20;99.90;;;;;;5028838;28;20450;-73
2021/12/28 04:00:08;;;;;;;5.70;1.50;;;8.20;99.90;;;;;;5030589;28;20424;-73
2021/12/28 04:02:34;;;;;;;2.87;1.10;;;8.20;99.90;;;;;;5030196;28;20497;-74
2021/12/28 04:05:00;;;;;;;4.97;1.10;;;8.20;99.90;;;;;;5030565;28;20857;-74
2021/12/28 04:07:26;;;;;;;4.87;1.40;;;8.10;99.90;;;;;;5030035;28;20181;-73
2021/12/28 04:12:18;;;;;;;1.93;1.30;;;8.10;99.90;;;;;;5030486;28;20670;-72
2021/12/28 04:14:44;;;;;;;1.80;1.70;;;8.10;99.90;;;;;;5030020;28;20967;-73
2021/12/28 04:17:10;;;;;;;5.90;1.53;;;8.10;99.90;;;;;;5029961;28;20431;-74
2021/12/28 04:19:35;;;;;;;2.60;1.30;;;8.10;99.90;;;;;;5029757;28;20204;-73
2021/12/28 04:22:02;;;;;;;2.70;1.53;;;8.10;99.90;;;;;;5029994;28;20693;-74
2021/12/28 04:24:27;;;;;;;3.57;1.73;;;8.10;99.90;;;;;;5029826;28;20235;-74
2021/12/28 04:26:53;;;;;;;2.60;1.10;;;8.20;99.90;;;;;;5029721;28;20415;-74
2021/12/28 04:29:18;;;;;;;4.20;1.40;;;8.30;99.90;;;;;;5029869;28;20192;-74
2021/12/28 04:31:44;;;;;;;2.90;1.57;;;8.40;99.90;;;;;;5029788;28;20192;-75
2021/12/28 04:34:10;;;;;;;1.60;1.30;;;8.30;99.90;;;;;;5029755;28;20569;-74
2021/12/28 04:36:36;;;;;;;6.20;1.53;;;8.30;99.90;;;;;;5029620;28;20532;-74
2021/12/28 04:39:03;;;;;;;2.90;1.40;;;8.20;99.90;;;;;;5029402;28;20450;-74
2021/12/28 04:41:29;;;;;;;2.50;1.20;;;8.20;99.90;;;;;;5029324;28;20437;-74
2021/12/28 04:43:55;;;;;;;4.17;1.67;;;8.20;99.90;;;;;;5029448;28;20431;-74
2021/12/28 04:46:20;;;;;;;4.60;2.07;;;8.20;99.90;;;;;;5029618;28;20177;-74
2021/12/28 04:48:46;;;;;;;3.77;1.50;;;8.20;99.90;;;;;;5028427;28;20204;-74
2021/12/28 04:51:12;;;;;;;1.53;1.30;;;8.10;99.90;;;;;;5029646;28;20219;-74
2021/12/28 04:53:38;;;;;;;1.53;1.40;;;8.20;99.90;;;;;;5029713;28;20191;-74
2021/12/28 04:56:04;;;;;;;4.93;1.80;;;8.10;99.90;;;;;;5029675;28;20450;-74
2021/12/28 04:58:29;;;;;;;3.30;1.53;;;8.10;99.90;;;;;;5029657;28;20200;-74
2021/12/28 05:00:55;;;;;;;3.10;1.93;;;8.00;99.90;;;;;;5029578;28;20523;-75
2021/12/28 05:03:21;;;;;;;3.23;2.20;;;8.10;99.90;;;;;;5029711;28;20208;-74
2021/12/28 05:05:50;;;;;;;5.37;2.33;;;7.90;99.90;;;;;;5029641;28;20267;-74
2021/12/28 05:08:19;;;;;;;4.87;1.90;;;8.00;99.90;;;;;;5028171;28;20439;-73
2021/12/28 05:10:45;;;;;;;2.30;1.70;;;7.90;99.90;;;;;;5029585;28;20511;-75
2021/12/28 05:13:11;;;;;;;3.00;1.60;;;8.00;99.90;;;;;;5029835;28;20424;-75
2021/12/28 05:15:36;;;;;;;5.30;1.70;;;8.00;99.90;;;;;;5029970;28;20416;-75
2021/12/28 05:18:04;;;;;;;2.80;1.10;;;8.00;99.90;;;;;;5029812;28;20261;-74
2021/12/28 05:20:29;;;;;;;2.70;1.70;;;8.00;99.90;;;;;;5028550;28;20184;-75
2021/12/28 05:22:55;;;;;;;4.80;1.63;;;8.10;99.90;;;;;;5029807;28;20467;-75
2021/12/28 05:25:21;;;;;;;2.60;1.00;;;8.10;99.90;;;;;;5029416;28;20185;-74
2021/12/28 05:27:47;;;;;;;1.17;1.07;;;8.10;99.90;;;;;;5029433;28;20225;-74
2021/12/28 05:30:13;;;;;;;1.77;1.10;;;8.20;99.90;;;;;;5011386;28;20427;-74
2021/12/28 05:32:38;;;;;;;1.00;0.83;;;8.30;99.90;;;;;;5029325;28;20206;-74
2021/12/28 05:35:07;;;;;;;1.50;1.40;;;8.30;99.90;;;;;;5027776;28;20335;-75
2021/12/28 05:37:33;;;;;;;1.73;1.57;;;8.30;99.90;;;;;;5027611;28;20188;-73
2021/12/28 05:39:59;;;;;;;1.43;1.33;;;8.30;99.90;;;;;;5029017;28;20789;-73
2021/12/28 05:42:25;;;;;;;3.10;1.50;;;8.30;99.90;;;;;;5027505;28;20470;-73
2021/12/28 05:44:51;;;;;;;3.10;1.20;;;8.30;99.90;;;;;;5028783;28;20184;-73
2021/12/28 05:47:16;;;;;;;2.40;1.47;;;8.20;99.90;;;;;;5028653;28;21257;-74
2021/12/28 05:49:42;;;;;;;4.10;1.63;;;8.20;99.90;;;;;;5028806;28;20171;-75
2021/12/28 05:52:08;;;;;;;1.67;1.57;;;8.20;99.90;;;;;;5011008;28;20227;-74
2021/12/28 05:54:34;;;;;;;1.27;1.17;;;8.10;99.90;;;;;;5028694;28;20415;-75
2021/12/28 05:57:00;;;;;;;1.13;1.03;;;8.10;99.90;;;;;;5027313;28;20430;-75
2021/12/28 05:59:26;;;;;;;2.53;1.50;;;8.10;99.90;;;;;;5028541;28;20818;-74
2021/12/28 06:01:52;;;;;;;1.50;1.40;;;8.20;99.90;;;;;;5028587;28;20466;-75
2021/12/28 06:04:18;;;;;;;2.10;1.37;;;8.20;99.90;;;;;;5028397;28;20420;-75
2021/12/28 06:06:43;;;;;;;2.47;1.40;;;8.20;99.90;;;;;;5029000;28;20193;-78
2021/12/28 06:09:09;;;;;;;1.80;1.30;;;8.30;99.90;;;;;;5027091;28;20773;-76
2021/12/28 06:11:35;;;;;;;3.50;0.83;;;8.30;99.90;;;;;;5027085;28;20570;-76
2021/12/28 06:14:01;;;;;;;6.63;1.13;;;8.30;99.90;;;;;;5028116;28;20316;-77
2021/12/28 06:16:26;;;;;;;3.17;1.20;;;8.30;99.90;;;;;;5030301;28;20182;-78
2021/12/28 06:18:52;;;;;;;2.83;1.40;;;8.30;99.90;;;;;;5028989;28;20619;-77
2021/12/28 06:21:18;;;;;;;3.00;1.30;;;8.40;99.90;;;;;;5027632;28;20186;-77
2021/12/28 06:23:43;;;;;;;2.93;1.30;;;8.30;99.90;;;;;;5011062;28;20557;-76
2021/12/28 06:26:09;;;;;;;3.20;0.83;;;8.20;99.90;;;;;;5028919;28;20192;-76
2021/12/28 06:28:34;;;;;;;0.90;0.80;;;8.20;99.90;;;;;;5028927;28;20204;-77
2021/12/28 06:31:01;;;;;;;1.10;1.00;;;8.20;99.90;;;;;;5027138;28;20658;-76
2021/12/28 06:33:27;;;;;;;1.67;0.80;;;8.20;99.90;;;;;;5026972;28;20192;-76
2021/12/28 06:35:54;;;;;;;0.83;0.80;;;8.10;99.90;;;;;;5028563;28;20423;-75
2021/12/28 06:38:20;;;;;;;1.27;1.17;;;8.10;99.90;;;;;;5032228;28;20223;-75
2021/12/28 06:40:46;;;;;;;1.53;1.00;;;8.10;99.90;;;;;;5032022;28;20434;-76
2021/12/28 06:43:12;;;;;;;2.10;1.40;;;8.20;99.90;;;;;;5032179;28;20470;-76
2021/12/28 06:45:38;;;;;;;0.80;0.80;;;8.20;99.90;;;;;;5032235;28;20435;-76
2021/12/28 06:48:04;;;;;;;1.17;0.60;;;8.20;99.90;;;;;;5014277;28;20443;-76
2021/12/28 06:50:30;;;;;;;5.23;0.90;;;8.20;99.90;;;;;;5030514;28;20193;-76
2021/12/28 06:52:56;;;;;;;1.13;1.03;;;8.20;99.90;;;;;;5030645;28;20433;-76
2021/12/28 06:55:21;;;;;;;1.47;1.00;;;8.20;99.90;;;;;;5030361;28;20208;-74
2021/12/28 06:57:47;;;;;;;0.90;0.80;;;8.20;99.90;;;;;;5030428;28;20208;-75
2021/12/28 07:00:16;;;;;;;1.13;0.60;;;8.20;99.90;;;;;;5030675;28;20557;-76
2021/12/28 07:02:42;;;;;;;1.10;0.93;;;8.30;99.90;;;;;;5031819;28;20701;-76
2021/12/28 07:05:09;;;;;;;0.80;0.70;;;8.30;99.90;;;;;;5032118;28;20784;-76
2021/12/28 07:07:35;;;;;;;1.00;0.70;;;8.30;99.90;;;;;;5031727;28;20447;-74
2021/12/28 07:10:01;;;;;;;2.00;1.00;;;8.40;99.90;;;;;;5030405;28;20975;-76
2021/12/28 07:12:27;;;;;;;0.70;0.50;;;8.50;99.90;;;;;;5031656;28;20427;-76
2021/12/28 07:14:53;;;;;;;0.80;0.60;;;8.40;99.90;;;;;;5031754;28;20431;-76
2021/12/28 07:17:19;;;;;;;0.83;0.60;;;8.40;99.90;;;;;;5031812;28;20246;-75
2021/12/28 07:19:46;;;;;;;0.80;0.77;;;8.50;99.90;;;;;;5031733;28;20919;-76
2021/12/28 07:22:12;;;;;;;0.70;0.60;;;8.50;99.90;;;;;;5031386;28;20204;-76
2021/12/28 07:24:37;;;;;;;1.37;0.50;;;8.50;99.90;;;;;;5031761;28;20424;-75
2021/12/28 07:27:04;;;;;;;0.80;0.70;;;8.50;99.90;;;;;;5032243;28;20431;-76
2021/12/28 07:29:30;;;;;;;0.80;0.70;;;8.50;99.90;;;;;;5031853;28;20208;-76
2021/12/28 07:31:55;;;;;;;2.07;0.80;;;8.50;99.90;;;;;;5030501;28;20485;-76
2021/12/28 07:34:21;;;;;;;0.83;0.60;;;8.50;99.90;;;;;;5031718;28;20427;-76
2021/12/28 07:36:47;;;;;;;0.70;0.60;;;8.50;99.90;;;;;;5032012;28;20191;-76
2021/12/28 07:39:12;;;;;;;0.70;0.50;;;8.50;99.90;;;;;;5031751;28;20209;-76
2021/12/28 07:41:38;;;;;;;2.60;0.40;;;8.50;99.90;;;;;;5030266;28;20246;-76
2021/12/28 07:44:04;;;;;;;1.07;0.63;;;8.50;99.90;;;;;;5013837;28;20276;-76
2021/12/28 07:46:30;;;;;;;1.47;0.57;;;8.60;99.90;;;;;;5031560;28;20180;-76
2021/12/28 07:48:56;;;;;;;0.60;0.40;;;8.60;99.90;;;;;;5030799;28;20536;-76
2021/12/28 07:51:21;;;;;;;0.80;0.53;;;8.60;99.90;;;;;;5031220;28;20210;-76
2021/12/28 07:53:47;;;;;;;0.67;0.53;;;8.60;99.90;;;;;;5031330;28;20207;-76
2021/12/28 07:56:14;;;;;;;0.70;0.50;;;8.70;99.90;;;;;;5031257;28;20192;-76
2021/12/28 07:58:39;;;;;;;2.07;1.13;;;8.80;99.90;;;;;;5029923;28;20447;-76
2021/12/28 08:01:05;;;;;;;0.70;0.50;;;8.80;99.90;;;;;;5031083;28;20434;-76
2021/12/28 08:03:31;;;;;;;0.60;0.40;;;8.70;99.90;;;;;;5029418;28;20219;-76
2021/12/28 08:05:56;;;;;;;0.60;0.40;;;8.70;99.90;;;;;;5030957;28;20275;-76
2021/12/28 08:08:22;;;;;;;0.60;0.40;;;8.70;99.90;;;;;;5030769;28;20238;-76
2021/12/28 08:10:48;;;;;;;1.30;0.53;;;8.80;99.90;;;;;;5030750;28;20205;-76
2021/12/28 08:13:14;;;;;;;0.60;0.40;;;8.70;99.90;;;;;;5030776;28;20965;-76
2021/12/28 08:15:39;;;;;;;0.77;0.63;;;8.70;99.90;;;;;;5029664;28;20574;-76
2021/12/28 08:18:07;;;;;;;0.90;0.43;;;8.70;99.90;;;;;;5030944;28;20588;-76
2021/12/28 08:20:33;;;;;;;1.17;0.50;;;8.70;99.90;;;;;;5029312;28;20188;-76
2021/12/28 08:22:59;;;;;;;0.80;0.40;;;8.70;99.90;;;;;;5031188;28;20507;-75
2021/12/28 08:25:26;;;;;;;0.90;0.47;;;8.80;99.90;;;;;;5030606;28;20422;-76
2021/12/28 08:27:52;;;;;;;0.60;0.50;;;8.70;99.90;;;;;;5030654;28;20439;-76
2021/12/28 08:30:19;;;;;;;0.70;0.53;;;8.80;99.90;;;;;;5030745;28;20814;-76
2021/12/28 08:32:46;;;;;;;0.70;0.50;;;8.90;99.90;;;;;;5012640;28;20240;-75
2021/12/28 08:35:13;;;;;;;0.97;0.43;;;9.00;99.90;;;;;;5029210;28;20774;-75
2021/12/28 08:37:40;;;;;;;0.70;0.60;;;8.90;99.90;;;;;;5028984;28;20440;-76
2021/12/28 08:40:07;;;;;;;0.60;0.40;;;9.00;99.90;;;;;;5028784;28;20439;-76
2021/12/28 08:42:33;;;;;;;0.60;0.30;;;9.00;99.90;;;;;;5028192;28;20472;-76
2021/12/28 08:44:59;;;;;;;0.60;0.40;;;9.10;99.90;;;;;;5029766;28;20430;-76
2021/12/28 08:47:27;;;;;;;0.53;0.30;;;9.10;99.90;;;;;;5029585;28;20428;-75
2021/12/28 08:49:56;;;;;;;0.60;0.40;;;9.10;99.90;;;;;;5028395;28;20181;-75
2021/12/28 08:52:22;;;;;;;0.60;0.40;;;9.00;99.90;;;;;;5029579;28;20439;-75
2021/12/28 08:54:48;;;;;;;0.60;0.40;;;9.00;99.90;;;;;;5028362;28;20434;-75
2021/12/28 08:57:14;;;;;;;0.60;0.40;;;9.00;99.90;;;;;;5029837;28;20422;-75
2021/12/28 08:59:39;;;;;;;0.70;0.40;;;9.10;99.90;;;;;;5027373;28;20303;-76
2021/12/28 09:02:07;;;;;;;0.60;0.40;;;9.20;99.90;;;;;;5029479;28;20272;-77
2021/12/28 09:04:33;;;;;;;1.90;1.30;;;9.20;99.90;;;;;;5029391;28;20184;-76
2021/12/28 09:06:59;;;;;;;0.70;0.40;;;9.30;99.90;;;;;;5029455;28;20874;-77
2021/12/28 09:09:25;;;;;;;1.30;1.20;;;9.40;99.90;;;;;;5028103;28;20200;-77
2021/12/28 09:11:50;;;;;;;0.80;0.63;;;9.40;99.90;;;;;;5029258;28;20425;-76
2021/12/28 09:14:16;;;;;;;0.60;0.40;;;9.30;99.90;;;;;;5011445;28;20210;-76
2021/12/28 09:16:42;;;;;;;1.83;0.47;;;9.30;99.90;;;;;;5012464;28;20803;-77
2021/12/28 09:19:08;;;;;;;0.70;0.40;;;9.30;99.90;;;;;;5030315;28;20208;-78
2021/12/28 09:21:33;;;;;;;1.00;0.40;;;9.30;99.90;;;;;;5030272;28;20746;-77
2021/12/28 09:23:59;;;;;;;0.60;0.40;;;9.40;99.90;;;;;;5014008;28;20665;-77
2021/12/28 09:26:25;;;;;;;0.80;0.40;;;9.40;99.90;;;;;;5030264;28;20795;-78
2021/12/28 09:28:50;;;;;;;0.60;0.40;;;9.40;99.90;;;;;;5030978;28;20296;-78
2021/12/28 09:31:16;;;;;;;0.60;0.40;;;9.40;99.90;;;;;;5031291;28;20199;-77
2021/12/28 09:33:42;;;;;;;4.00;0.53;;;9.40;99.90;;;;;;5030524;28;20746;-78
2021/12/28 09:36:11;;;;;;;0.60;0.30;;;9.50;99.90;;;;;;5029908;28;20965;-76
2021/12/28 09:38:36;;;;;;;0.53;0.40;;;9.50;99.90;;;;;;5027586;28;20285;-77
2021/12/28 09:41:03;;;;;;;0.67;0.40;;;9.50;99.90;;;;;;5028999;28;20473;-76
2021/12/28 09:43:29;;;;;;;0.60;0.30;;;9.60;99.90;;;;;;5028785;28;20220;-76
2021/12/28 09:45:57;;;;;;;0.80;0.50;;;9.70;99.90;;;;;;5028788;28;20457;-75
2021/12/28 09:48:23;;;;;;;0.50;0.30;;;9.70;99.90;;;;;;5027130;28;20459;-77
2021/12/28 09:50:48;;;;;;;0.70;0.43;;;9.80;99.90;;;;;;5031085;28;20448;-78
2021/12/28 09:53:15;;;;;;;0.70;0.40;;;9.80;99.90;;;;;;5028299;28;20720;-76
2021/12/28 09:55:41;;;;;;;0.80;0.53;;;10.00;99.90;;;;;;5029790;28;20181;-77
2021/12/28 09:58:08;;;;;;;1.00;0.40;;;10.00;99.90;;;;;;5029176;28;20952;-77
2021/12/28 10:00:34;;;;;;;2.50;0.53;;;10.00;99.90;;;;;;5029285;28;20430;-76
2021/12/28 10:03:00;;;;;;;0.80;0.40;;;10.10;99.90;;;;;;5032165;28;20463;-77
2021/12/28 10:05:27;;;;;;;0.80;0.80;;;10.20;99.90;;;;;;5033260;28;20419;-77
2021/12/28 10:08:01;;;;;;;0.60;0.40;;;10.30;99.90;;;;;;5033635;28;20201;-77
2021/12/28 10:10:31;;;;;;;0.70;0.47;;;10.30;99.90;;;;;;5034561;28;20493;-77
2021/12/28 10:12:59;;;;;;;0.80;0.80;;;10.40;99.90;;;;;;5037307;28;20529;-77
2021/12/28 10:15:28;;;;;;;0.60;0.40;;;10.40;99.90;;;;;;5035963;28;20443;-77
2021/12/28 10:17:57;;;;;;;5.33;2.90;;;10.50;99.90;;;;;;5036005;28;20460;-77
2021/12/28 10:20:27;;;;;;;0.63;0.40;;;10.50;99.90;;;;;;5035378;28;20440;-77
2021/12/28 10:22:59;;;;;;;0.60;0.40;;;10.60;99.90;;;;;;5036485;28;20478;-77
2021/12/28 10:25:28;;;;;;;0.60;0.30;;;10.60;99.90;;;;;;5032469;28;20795;-77
2021/12/28 10:28:06;;;;;;;0.60;0.40;;;10.70;99.90;;;;;;5036215;28;20462;-77
2021/12/28 10:30:40;;;;;;;0.57;0.30;;;10.80;99.90;;;;;;5035311;28;20425;-76
2021/12/28 10:33:12;;;;;;;1.00;0.50;;;10.80;99.90;;;;;;5032765;28;20461;-77
2021/12/28 10:35:53;;;;;;;0.63;0.33;;;10.80;99.90;;;;;;5031093;28;20514;-77
2021/12/28 10:38:25;;;;;;;0.80;0.60;;;10.60;99.90;;;;;;5031438;28;20526;-76
2021/12/28 10:40:55;;;;;;;0.60;0.30;;;10.60;99.90;;;;;;5034805;28;21026;-78
2021/12/28 10:43:26;;;;;;;1.50;0.50;;;10.50;99.90;;;;;;5034528;28;20488;-78
2021/12/28 10:46:01;;;;;;;0.60;0.40;;;10.40;99.90;;;;;;5036419;28;20469;-78
2021/12/28 10:48:33;;;;;;;0.70;0.40;;;10.30;99.90;;;;;;5034819;28;20568;-77
2021/12/28 10:51:12;;;;;;;0.70;0.50;;;10.30;99.90;;;;;;5035767;28;21237;-78
2021/12/28 10:54:12;;;;;;;0.60;0.43;;;10.30;99.90;;;;;;5036116;28;20455;-78
2021/12/28 10:56:57;;;;;;;0.70;0.40;;;10.30;99.90;;;;;;5035588;28;20425;-78
2021/12/28 10:59:31;;;;;;;0.70;0.50;;;10.30;99.90;;;;;;5035142;28;20561;-77
2021/12/28 11:01:57;;;;;;;0.70;0.40;;;10.30;99.90;;;;;;5034445;28;21154;-78
2021/12/28 11:04:34;;;;;;;1.20;0.90;;;10.30;99.90;;;;;;5017384;28;20741;-77
2021/12/28 11:07:04;;;;;;;2.83;1.20;;;10.30;99.90;;;;;;5034534;28;20485;-77
2021/12/28 11:09:29;;;;;;;1.70;0.97;;;10.40;99.90;;;;;;5035255;28;20558;-77
2021/12/28 11:11:56;;;;;;;0.70;0.70;;;10.40;99.90;;;;;;5035196;28;20513;-78
2021/12/28 11:14:24;;;;;;;0.63;0.40;;;10.40;99.90;;;;;;5035706;28;20214;-77
2021/12/28 11:16:56;;;;;;;0.70;0.40;;;10.40;99.90;;;;;;5034665;28;21000;-77
2021/12/28 11:19:33;;;;;;;0.70;0.50;;;10.40;99.90;;;;;;5035624;28;21122;-77
2021/12/28 11:22:02;;;;;;;0.80;0.60;;;10.40;99.90;;;;;;5033867;28;20470;-77
2021/12/28 11:24:31;;;;;;;1.03;0.40;;;10.50;99.90;;;;;;5034401;28;20432;-77
2021/12/28 11:26:56;;;;;;;1.67;0.50;;;10.90;99.90;;;;;;5035443;28;20416;-77
2021/12/28 11:29:28;;;;;;;0.77;0.60;;;11.10;99.90;;;;;;5034231;28;20463;-77
2021/12/28 11:31:59;;;;;;;1.10;0.70;;;11.20;99.90;;;;;;5035257;28;20196;-77
2021/12/28 11:34:30;;;;;;;0.70;0.50;;;11.30;99.90;;;;;;5034169;28;20457;-78
2021/12/28 11:37:02;;;;;;;0.90;0.40;;;11.60;99.90;;;;;;5035038;28;20437;-77
2021/12/28 11:39:31;;;;;;;0.60;0.30;;;11.80;99.90;;;;;;5034837;28;21262;-78
2021/12/28 11:41:59;;;;;;;0.90;0.50;;;11.90;99.90;;;;;;5033884;28;20466;-78
2021/12/28 11:44:27;;;;;;;0.80;0.80;;;12.00;99.90;;;;;;5035237;28;20439;-78
2021/12/28 11:46:55;;;;;;;0.70;0.40;;;12.20;99.90;;;;;;5035493;28;20433;-78
2021/12/28 11:49:25;;;;;;;1.23;0.97;;;12.40;99.90;;;;;;5017506;28;20900;-78
2021/12/28 11:51:52;;;;;;;1.43;0.70;;;12.50;99.90;;;;;;5033728;28;20469;-77
2021/12/28 11:54:19;;;;;;;0.97;0.40;;;12.50;99.90;;;;;;5033167;28;20470;-77
2021/12/28 11:56:49;;;;;;;0.70;0.47;;;13.60;99.90;;;;;;5033525;28;21044;-78
2021/12/28 11:59:20;;;;;;;0.73;0.50;;;14.50;99.90;;;;;;5033849;28;20458;-77
2021/12/28 12:01:51;;;;;;;0.70;0.40;;;14.80;99.90;;;;;;5035083;28;20437;-78
2021/12/28 12:04:35;;;;;;;0.60;0.40;;;14.90;99.90;;;;;;5035684;28;20415;-77
2021/12/28 12:07:01;;;;;;;0.80;0.47;;;14.30;99.90;;;;;;5034582;28;20427;-78
2021/12/28 12:09:28;;;;;;;0.80;0.40;;;14.10;99.90;;;;;;5034236;28;20447;-77
2021/12/28 12:12:09;;;;;;;0.80;0.33;;;13.90;99.90;;;;;;5034082;28;20423;-78
2021/12/28 12:15:01;;;;;;;0.97;0.33;;;13.50;99.90;;;;;;5032287;28;20434;-77
2021/12/28 12:17:42;;;;;;;0.70;0.40;;;13.10;99.90;;;;;;5035598;28;20500;-78
2021/12/28 12:20:23;;;;;;;0.70;0.47;;;13.00;99.90;;;;;;5036040;28;20513;-77
2021/12/28 12:22:55;;;;;;;5.17;0.60;;;12.80;99.90;;;;;;5034827;28;20472;-78
2021/12/28 12:25:26;;;;;;;0.70;0.50;;;12.60;99.90;;;;;;5033387;28;20433;-77
2021/12/28 12:28:05;;;;;;;0.87;0.57;;;12.40;99.90;;;;;;5036156;28;20532;-77
2021/12/28 12:30:34;;;;;;;0.70;0.50;;;12.20;99.90;;;;;;5033274;28;20513;-77
2021/12/28 12:33:07;;;;;;;1.03;0.70;;;12.20;99.90;;;;;;5034618;28;20782;-78
2021/12/28 12:35:41;;;;;;;0.83;0.50;;;12.20;99.90;;;;;;5034579;28;20891;-77
2021/12/28 12:38:09;;;;;;;2.03;1.43;;;12.20;99.90;;;;;;5034766;28;20520;-77
2021/12/28 12:40:58;;;;;;;2.03;0.60;;;12.10;99.90;;;;;;5035477;28;20474;-77
2021/12/28 12:43:39;;;;;;;0.73;0.47;;;12.10;99.90;;;;;;5032001;28;20587;-76
2021/12/28 12:46:09;;;;;;;0.90;0.73;;;12.00;99.90;;;;;;5032781;28;20449;-76
2021/12/28 12:48:38;;;;;;;0.80;0.70;;;12.00;99.90;;;;;;5030407;28;20441;-77
2021/12/28 12:51:19;;;;;;;0.70;0.40;;;12.00;99.90;;;;;;5034453;28;20447;-78
2021/12/28 12:53:50;;;;;;;1.20;0.50;;;12.00;99.90;;;;;;5034224;28;20422;-77
2021/12/28 12:56:18;;;;;;;0.70;0.40;;;12.00;99.90;;;;;;5033876;28;20479;-78
2021/12/28 12:58:46;;;;;;;0.70;0.50;;;12.00;99.90;;;;;;5034714;28;20445;-78